sensor_id;sensor_type;location;lat;lon;timestamp;pressure;altitude;pressure_sealevel;temperature;humidity
60371;BME280;48550;40.588;49.684;2023-03-23T00:02:12;101752.63;;;8.67;100.00
60371;BME280;48550;40.588;49.684;2023-03-23T00:04:37;101759.88;;;8.45;100.00
60371;BME280;48550;40.588;49.684;2023-03-23T00:07:03;101753.69;;;8.23;100.00
60371;BME280;48550;40.588;49.684;2023-03-23T00:09:29;101762.81;;;8.14;100.00
60371;BME280;48550;40.588;49.684;2023-03-23T00:12:00;101761.84;;;8.36;100.00
60371;BME280;48550;40.588;49.684;2023-03-23T00:14:33;101755.84;;;8.55;100.00
60371;BME280;48550;40.588;49.684;2023-03-23T00:17:10;101753.94;;;8.49;100.00
60371;BME280;48550;40.588;49.684;2023-03-23T00:19:37;101749.56;;;8.70;100.00
60371;BME280;48550;40.588;49.684;2023-03-23T00:22:14;101746.19;;;8.89;100.00
60371;BME280;48550;40.588;49.684;2023-03-23T00:24:41;101740.81;;;8.89;100.00
60371;BME280;48550;40.588;49.684;2023-03-23T00:27:07;101744.25;;;8.76;100.00
60371;BME280;48550;40.588;49.684;2023-03-23T00:29:34;101749.41;;;8.78;100.00
60371;BME280;48550;40.588;49.684;2023-03-23T00:32:00;101748.31;;;8.94;100.00
60371;BME280;48550;40.588;49.684;2023-03-23T00:34:27;101749.56;;;8.70;100.00
60371;BME280;48550;40.588;49.684;2023-03-23T00:36:58;101758.31;;;8.57;100.00
60371;BME280;48550;40.588;49.684;2023-03-23T00:39:25;101758.69;;;8.54;100.00
60371;BME280;48550;40.588;49.684;2023-03-23T00:41:53;101754.22;;;8.33;100.00
60371;BME280;48550;40.588;49.684;2023-03-23T00:44:20;101753.53;;;8.52;100.00
60371;BME280;48550;40.588;49.684;2023-03-23T00:46:49;101750.38;;;8.70;100.00
60371;BME280;48550;40.588;49.684;2023-03-23T00:49:20;101751.84;;;8.73;100.00
60371;BME280;48550;40.588;49.684;2023-03-23T00:51:51;101759.72;;;8.81;100.00
60371;BME280;48550;40.588;49.684;2023-03-23T00:54:17;101754.47;;;8.94;100.00
60371;BME280;48550;40.588;49.684;2023-03-23T00:56:42;101749.50;;;8.91;100.00
60371;BME280;48550;40.588;49.684;2023-03-23T00:59:08;101750.44;;;8.77;100.00
60371;BME280;48550;40.588;49.684;2023-03-23T01:01:35;101749.56;;;8.70;100.00
60371;BME280;48550;40.588;49.684;2023-03-23T01:04:01;101753.16;;;8.55;100.00
60371;BME280;48550;40.588;49.684;2023-03-23T01:06:34;101742.25;;;8.85;100.00
60371;BME280;48550;40.588;49.684;2023-03-23T01:09:07;101746.53;;;8.79;100.00
60371;BME280;48550;40.588;49.684;2023-03-23T01:11:34;101744.06;;;8.78;100.00
60371;BME280;48550;40.588;49.684;2023-03-23T01:14:00;101745.22;;;8.69;100.00
60371;BME280;48550;40.588;49.684;2023-03-23T01:16:26;101739.53;;;8.78;100.00
60371;BME280;48550;40.588;49.684;2023-03-23T01:18:52;101743.47;;;8.54;100.00
60371;BME280;48550;40.588;49.684;2023-03-23T01:21:19;101741.19;;;8.51;100.00
60371;BME280;48550;40.588;49.684;2023-03-23T01:23:46;101749.16;;;8.45;100.00
60371;BME280;48550;40.588;49.684;2023-03-23T01:26:14;101750.81;;;8.46;100.00
60371;BME280;48550;40.588;49.684;2023-03-23T01:28:41;101748.28;;;8.38;100.00
60371;BME280;48550;40.588;49.684;2023-03-23T01:31:09;101753.34;;;8.54;100.00
60371;BME280;48550;40.588;49.684;2023-03-23T01:33:38;101750.97;;;8.66;100.00
60371;BME280;48550;40.588;49.684;2023-03-23T01:36:06;101747.06;;;8.68;100.00
60371;BME280;48550;40.588;49.684;2023-03-23T01:38:33;101753.88;;;8.71;100.00
60371;BME280;48550;40.588;49.684;2023-03-23T01:41:00;101749.34;;;8.71;100.00
60371;BME280;48550;40.588;49.684;2023-03-23T01:43:26;101747.72;;;8.70;100.00
60371;BME280;48550;40.588;49.684;2023-03-23T01:45:52;101748.28;;;8.66;100.00
60371;BME280;48550;40.588;49.684;2023-03-23T01:48:36;101760.16;;;8.56;100.00
60371;BME280;48550;40.588;49.684;2023-03-23T01:51:16;101750.38;;;8.42;100.00
60371;BME280;48550;40.588;49.684;2023-03-23T01:53:46;101747.91;;;8.41;100.00
60371;BME280;48550;40.588;49.684;2023-03-23T01:56:15;101748.44;;;8.57;100.00
60371;BME280;48550;40.588;49.684;2023-03-23T01:58:42;101753.88;;;8.71;100.00
60371;BME280;48550;40.588;49.684;2023-03-23T02:01:12;101740.41;;;8.85;100.00
60371;BME280;48550;40.588;49.684;2023-03-23T02:03:42;101743.25;;;8.84;100.00
60371;BME280;48550;40.588;49.684;2023-03-23T02:06:08;101743.72;;;8.59;100.00
60371;BME280;48550;40.588;49.684;2023-03-23T02:08:35;101740.69;;;8.41;100.00
60371;BME280;48550;40.588;49.684;2023-03-23T02:11:01;101742.41;;;8.49;100.00
60371;BME280;48550;40.588;49.684;2023-03-23T02:13:27;101745.03;;;8.42;100.00
60371;BME280;48550;40.588;49.684;2023-03-23T02:24:23;101748.88;;;7.97;100.00
60371;BME280;48550;40.588;49.684;2023-03-23T02:27:06;101755.69;;;8.00;100.00
60371;BME280;48550;40.588;49.684;2023-03-23T02:29:55;101746.88;;;7.84;100.00
60371;BME280;48550;40.588;49.684;2023-03-23T02:35:23;101742.34;;;7.63;100.00
60371;BME280;48550;40.588;49.684;2023-03-23T02:38:28;101750.31;;;7.78;100.00
60371;BME280;48550;40.588;49.684;2023-03-23T02:41:00;101753.44;;;7.82;100.00
60371;BME280;48550;40.588;49.684;2023-03-23T02:43:33;101748.63;;;8.13;100.00
60371;BME280;48550;40.588;49.684;2023-03-23T02:46:00;101745.72;;;8.29;100.00
60371;BME280;48550;40.588;49.684;2023-03-23T02:48:29;101757.75;;;8.19;100.00
60371;BME280;48550;40.588;49.684;2023-03-23T02:50:56;101756.25;;;7.95;100.00
60371;BME280;48550;40.588;49.684;2023-03-23T02:53:24;101759.72;;;7.74;100.00
60371;BME280;48550;40.588;49.684;2023-03-23T02:55:53;101760.22;;;7.63;100.00
60371;BME280;48550;40.588;49.684;2023-03-23T02:58:20;101764.31;;;7.80;100.00
60371;BME280;48550;40.588;49.684;2023-03-23T03:00:49;101764.88;;;7.76;100.00
60371;BME280;48550;40.588;49.684;2023-03-23T03:03:19;101775.38;;;7.77;100.00
60371;BME280;48550;40.588;49.684;2023-03-23T03:11:07;101787.09;;;7.76;100.00
60371;BME280;48550;40.588;49.684;2023-03-23T03:14:00;101779.72;;;7.78;100.00
60371;BME280;48550;40.588;49.684;2023-03-23T03:16:41;101777.69;;;7.80;100.00
60371;BME280;48550;40.588;49.684;2023-03-23T03:19:20;101785.81;;;7.72;100.00
60371;BME280;48550;40.588;49.684;2023-03-23T03:21:52;101785.91;;;8.00;100.00
60371;BME280;48550;40.588;49.684;2023-03-23T03:24:20;101799.16;;;8.08;100.00
60371;BME280;48550;40.588;49.684;2023-03-23T03:26:50;101794.66;;;8.09;100.00
60371;BME280;48550;40.588;49.684;2023-03-23T03:29:24;101793.81;;;8.08;100.00
60371;BME280;48550;40.588;49.684;2023-03-23T03:31:52;101798.75;;;8.26;100.00
60371;BME280;48550;40.588;49.684;2023-03-23T03:34:21;101793.13;;;8.36;100.00
60371;BME280;48550;40.588;49.684;2023-03-23T03:36:49;101799.34;;;8.43;100.00
60371;BME280;48550;40.588;49.684;2023-03-23T03:39:17;101810.22;;;8.63;100.00
60371;BME280;48550;40.588;49.684;2023-03-23T03:41:45;101808.59;;;8.89;100.00
60371;BME280;48550;40.588;49.684;2023-03-23T03:44:11;101812.47;;;8.87;100.00
60371;BME280;48550;40.588;49.684;2023-03-23T03:46:37;101817.13;;;9.00;100.00
60371;BME280;48550;40.588;49.684;2023-03-23T03:49:05;101812.25;;;9.10;100.00
60371;BME280;48550;40.588;49.684;2023-03-23T03:51:33;101809.56;;;9.44;100.00
60371;BME280;48550;40.588;49.684;2023-03-23T03:54:00;101820.88;;;9.74;100.00
60371;BME280;48550;40.588;49.684;2023-03-23T03:56:26;101824.88;;;10.05;100.00
60371;BME280;48550;40.588;49.684;2023-03-23T03:58:52;101824.91;;;10.18;100.00
60371;BME280;48550;40.588;49.684;2023-03-23T04:01:20;101836.13;;;10.28;100.00
60371;BME280;48550;40.588;49.684;2023-03-23T04:03:50;101835.09;;;10.29;100.00
60371;BME280;48550;40.588;49.684;2023-03-23T04:06:17;101834.59;;;10.12;100.00
60371;BME280;48550;40.588;49.684;2023-03-23T04:08:42;101842.91;;;10.24;100.00
60371;BME280;48550;40.588;49.684;2023-03-23T04:11:14;101845.59;;;10.24;100.00
60371;BME280;48550;40.588;49.684;2023-03-23T04:13:40;101846.84;;;10.35;100.00
60371;BME280;48550;40.588;49.684;2023-03-23T04:16:07;101843.81;;;10.44;100.00
60371;BME280;48550;40.588;49.684;2023-03-23T04:18:34;101851.88;;;10.51;100.00
60371;BME280;48550;40.588;49.684;2023-03-23T04:21:01;101847.13;;;10.86;100.00
60371;BME280;48550;40.588;49.684;2023-03-23T04:23:29;101850.03;;;10.98;100.00
60371;BME280;48550;40.588;49.684;2023-03-23T04:25:56;101853.53;;;11.11;100.00
60371;BME280;48550;40.588;49.684;2023-03-23T04:28:26;101855.00;;;11.21;100.00
60371;BME280;48550;40.588;49.684;2023-03-23T04:30:53;101859.91;;;11.43;100.00
60371;BME280;48550;40.588;49.684;2023-03-23T04:33:20;101867.69;;;11.71;100.00
60371;BME280;48550;40.588;49.684;2023-03-23T04:35:47;101869.56;;;11.77;100.00
60371;BME280;48550;40.588;49.684;2023-03-23T04:38:15;101865.00;;;11.65;100.00
60371;BME280;48550;40.588;49.684;2023-03-23T04:40:43;101861.47;;;11.91;100.00
60371;BME280;48550;40.588;49.684;2023-03-23T04:43:09;101869.84;;;12.14;100.00
60371;BME280;48550;40.588;49.684;2023-03-23T04:45:38;101877.59;;;12.35;100.00
60371;BME280;48550;40.588;49.684;2023-03-23T04:48:07;101884.41;;;12.38;100.00
60371;BME280;48550;40.588;49.684;2023-03-23T04:50:34;101881.34;;;12.66;100.00
60371;BME280;48550;40.588;49.684;2023-03-23T04:53:02;101896.88;;;12.95;100.00
60371;BME280;48550;40.588;49.684;2023-03-23T04:55:31;101894.66;;;13.17;100.00
60371;BME280;48550;40.588;49.684;2023-03-23T04:57:57;101886.22;;;13.32;100.00
60371;BME280;48550;40.588;49.684;2023-03-23T05:00:26;101888.66;;;13.40;100.00
60371;BME280;48550;40.588;49.684;2023-03-23T05:02:53;101889.63;;;13.21;100.00
60371;BME280;48550;40.588;49.684;2023-03-23T05:05:22;101892.41;;;13.39;100.00
60371;BME280;48550;40.588;49.684;2023-03-23T05:07:48;101896.31;;;13.98;100.00
60371;BME280;48550;40.588;49.684;2023-03-23T05:10:15;101883.56;;;15.30;100.00
60371;BME280;48550;40.588;49.684;2023-03-23T05:12:41;101897.53;;;16.82;87.60
60371;BME280;48550;40.588;49.684;2023-03-23T05:15:08;101899.94;;;18.06;72.25
60371;BME280;48550;40.588;49.684;2023-03-23T05:17:35;101906.78;;;18.85;62.79
60371;BME280;48550;40.588;49.684;2023-03-23T05:20:01;101905.28;;;19.36;59.22
60371;BME280;48550;40.588;49.684;2023-03-23T05:22:30;101910.47;;;20.52;52.12
60371;BME280;48550;40.588;49.684;2023-03-23T05:24:59;101915.16;;;21.28;46.56
60371;BME280;48550;40.588;49.684;2023-03-23T05:27:29;101906.94;;;21.38;47.66
60371;BME280;48550;40.588;49.684;2023-03-23T05:29:56;101908.84;;;21.63;46.33
60371;BME280;48550;40.588;49.684;2023-03-23T05:32:24;101910.88;;;21.97;45.43
60371;BME280;48550;40.588;49.684;2023-03-23T05:34:56;101921.59;;;21.88;44.57
60371;BME280;48550;40.588;49.684;2023-03-23T05:37:22;101912.66;;;22.81;43.15
60371;BME280;48550;40.588;49.684;2023-03-23T05:39:50;101921.38;;;22.44;42.10
60371;BME280;48550;40.588;49.684;2023-03-23T05:42:22;101921.38;;;22.83;41.59
60371;BME280;48550;40.588;49.684;2023-03-23T05:44:49;101917.47;;;23.28;40.89
60371;BME280;48550;40.588;49.684;2023-03-23T05:47:15;101916.47;;;23.43;40.30
60371;BME280;48550;40.588;49.684;2023-03-23T05:49:41;101926.53;;;23.24;40.26
60371;BME280;48550;40.588;49.684;2023-03-23T05:52:07;101923.66;;;23.39;39.83
60371;BME280;48550;40.588;49.684;2023-03-23T05:54:33;101917.84;;;23.17;39.90
60371;BME280;48550;40.588;49.684;2023-03-23T05:56:59;101924.75;;;23.38;39.09
60371;BME280;48550;40.588;49.684;2023-03-23T05:59:25;101914.72;;;23.57;39.25
60371;BME280;48550;40.588;49.684;2023-03-23T06:01:52;101930.56;;;24.08;37.41
60371;BME280;48550;40.588;49.684;2023-03-23T06:04:20;101922.91;;;22.99;38.33
60371;BME280;48550;40.588;49.684;2023-03-23T06:06:50;101921.53;;;23.60;38.18
60371;BME280;48550;40.588;49.684;2023-03-23T06:09:18;101917.59;;;22.74;39.46
60371;BME280;48550;40.588;49.684;2023-03-23T06:11:44;101913.63;;;22.56;39.72
60371;BME280;48550;40.588;49.684;2023-03-23T06:14:10;101918.03;;;21.87;41.82
60371;BME280;48550;40.588;49.684;2023-03-23T06:16:35;101910.88;;;22.95;39.56
60371;BME280;48550;40.588;49.684;2023-03-23T06:19:02;101917.16;;;23.59;36.52
60371;BME280;48550;40.588;49.684;2023-03-23T06:21:33;101913.22;;;23.94;35.24
60371;BME280;48550;40.588;49.684;2023-03-23T06:23:59;101912.19;;;24.08;35.08
60371;BME280;48550;40.588;49.684;2023-03-23T06:26:35;101909.56;;;23.74;35.68
60371;BME280;48550;40.588;49.684;2023-03-23T06:29:02;101911.50;;;23.74;35.82
60371;BME280;48550;40.588;49.684;2023-03-23T06:31:46;101915.47;;;22.16;38.19
60371;BME280;48550;40.588;49.684;2023-03-23T06:34:13;101910.78;;;23.10;36.08
60371;BME280;48550;40.588;49.684;2023-03-23T06:36:40;101909.94;;;23.39;34.66
60371;BME280;48550;40.588;49.684;2023-03-23T06:39:06;101908.13;;;22.61;36.26
60371;BME280;48550;40.588;49.684;2023-03-23T06:41:32;101901.88;;;23.24;34.95
60371;BME280;48550;40.588;49.684;2023-03-23T06:43:59;101908.22;;;23.19;34.87
60371;BME280;48550;40.588;49.684;2023-03-23T06:46:25;101907.63;;;22.93;35.61
60371;BME280;48550;40.588;49.684;2023-03-23T06:48:50;101910.34;;;23.27;33.49
60371;BME280;48550;40.588;49.684;2023-03-23T06:51:17;101903.81;;;23.23;33.03
60371;BME280;48550;40.588;49.684;2023-03-23T06:53:43;101904.16;;;23.17;33.38
60371;BME280;48550;40.588;49.684;2023-03-23T06:56:09;101895.59;;;22.89;34.31
60371;BME280;48550;40.588;49.684;2023-03-23T06:58:35;101902.13;;;22.93;34.87
60371;BME280;48550;40.588;49.684;2023-03-23T07:01:01;101904.34;;;22.91;34.71
60371;BME280;48550;40.588;49.684;2023-03-23T07:03:27;101898.44;;;22.74;36.40
60371;BME280;48550;40.588;49.684;2023-03-23T07:05:54;101902.59;;;22.66;36.21
60371;BME280;48550;40.588;49.684;2023-03-23T07:08:20;101894.03;;;22.78;36.05
60371;BME280;48550;40.588;49.684;2023-03-23T07:10:47;101893.13;;;22.54;37.29
60371;BME280;48550;40.588;49.684;2023-03-23T07:13:12;101890.84;;;22.66;37.35
60371;BME280;48550;40.588;49.684;2023-03-23T07:15:39;101888.13;;;23.00;37.25
60371;BME280;48550;40.588;49.684;2023-03-23T07:18:05;101889.28;;;23.23;36.44
60371;BME280;48550;40.588;49.684;2023-03-23T07:20:31;101895.31;;;23.25;36.38
60371;BME280;48550;40.588;49.684;2023-03-23T07:22:57;101882.75;;;22.50;38.47
60371;BME280;48550;40.588;49.684;2023-03-23T07:25:23;101878.34;;;22.55;39.23
60371;BME280;48550;40.588;49.684;2023-03-23T07:27:49;101871.00;;;22.84;38.86
60371;BME280;48550;40.588;49.684;2023-03-23T07:30:14;101878.28;;;22.60;38.98
60371;BME280;48550;40.588;49.684;2023-03-23T07:32:41;101873.66;;;21.26;42.99
60371;BME280;48550;40.588;49.684;2023-03-23T07:35:08;101870.34;;;19.65;49.95
60371;BME280;48550;40.588;49.684;2023-03-23T07:37:34;101856.66;;;18.76;52.57
60371;BME280;48550;40.588;49.684;2023-03-23T07:40:01;101855.00;;;18.21;56.03
60371;BME280;48550;40.588;49.684;2023-03-23T07:42:41;101844.91;;;17.34;61.44
60371;BME280;48550;40.588;49.684;2023-03-23T07:45:07;101847.91;;;16.99;64.00
60371;BME280;48550;40.588;49.684;2023-03-23T07:47:33;101844.41;;;16.53;66.11
60371;BME280;48550;40.588;49.684;2023-03-23T07:49:59;101838.53;;;15.99;71.13
60371;BME280;48550;40.588;49.684;2023-03-23T07:52:25;101835.00;;;15.99;69.66
60371;BME280;48550;40.588;49.684;2023-03-23T07:54:51;101826.63;;;15.48;70.72
60371;BME280;48550;40.588;49.684;2023-03-23T07:57:16;101832.31;;;15.00;73.09
60371;BME280;48550;40.588;49.684;2023-03-23T07:59:42;101833.66;;;14.68;78.63
60371;BME280;48550;40.588;49.684;2023-03-23T08:02:09;101824.94;;;14.54;80.79
60371;BME280;48550;40.588;49.684;2023-03-23T08:04:35;101826.59;;;14.25;77.62
60371;BME280;48550;40.588;49.684;2023-03-23T08:07:03;101815.31;;;13.98;81.05
60371;BME280;48550;40.588;49.684;2023-03-23T08:09:30;101815.97;;;13.82;93.72
60371;BME280;48550;40.588;49.684;2023-03-23T08:11:56;101802.78;;;14.04;91.08
60371;BME280;48550;40.588;49.684;2023-03-23T08:14:23;101807.34;;;14.21;80.54
60371;BME280;48550;40.588;49.684;2023-03-23T08:16:53;101804.44;;;14.35;72.03
60371;BME280;48550;40.588;49.684;2023-03-23T08:19:22;101805.69;;;14.20;76.15
60371;BME280;48550;40.588;49.684;2023-03-23T08:21:48;101791.66;;;14.42;75.10
60371;BME280;48550;40.588;49.684;2023-03-23T08:24:14;101800.88;;;14.64;66.60
60371;BME280;48550;40.588;49.684;2023-03-23T08:26:40;101797.00;;;14.72;64.33
60371;BME280;48550;40.588;49.684;2023-03-23T08:29:07;101788.66;;;14.73;65.50
60371;BME280;48550;40.588;49.684;2023-03-23T08:31:32;101788.31;;;14.70;65.13
60371;BME280;48550;40.588;49.684;2023-03-23T08:34:00;101778.69;;;14.74;65.61
60371;BME280;48550;40.588;49.684;2023-03-23T08:36:27;101773.28;;;14.85;60.67
60371;BME280;48550;40.588;49.684;2023-03-23T08:38:53;101769.91;;;14.90;60.88
60371;BME280;48550;40.588;49.684;2023-03-23T08:41:19;101759.19;;;14.83;60.31
60371;BME280;48550;40.588;49.684;2023-03-23T08:43:45;101766.00;;;14.62;62.84
60371;BME280;48550;40.588;49.684;2023-03-23T08:46:12;101756.34;;;14.55;66.66
60371;BME280;48550;40.588;49.684;2023-03-23T08:48:38;101751.78;;;14.79;65.12
60371;BME280;48550;40.588;49.684;2023-03-23T08:51:05;101749.34;;;14.89;70.10
60371;BME280;48550;40.588;49.684;2023-03-23T08:53:32;101759.28;;;14.77;65.46
60371;BME280;48550;40.588;49.684;2023-03-23T08:56:06;101757.19;;;14.55;65.92
60371;BME280;48550;40.588;49.684;2023-03-23T08:58:34;101739.63;;;14.35;70.19
60371;BME280;48550;40.588;49.684;2023-03-23T09:01:00;101737.84;;;14.28;67.81
60371;BME280;48550;40.588;49.684;2023-03-23T09:03:27;101725.75;;;13.89;76.10
60371;BME280;48550;40.588;49.684;2023-03-23T09:05:53;101730.88;;;13.79;80.02
60371;BME280;48550;40.588;49.684;2023-03-23T09:08:19;101734.38;;;13.68;85.34
60371;BME280;48550;40.588;49.684;2023-03-23T09:10:45;101741.13;;;13.89;83.50
60371;BME280;48550;40.588;49.684;2023-03-23T09:13:11;101733.94;;;14.13;79.23
60371;BME280;48550;40.588;49.684;2023-03-23T09:15:36;101720.66;;;14.11;73.41
60371;BME280;48550;40.588;49.684;2023-03-23T09:18:03;101726.88;;;14.12;66.25
60371;BME280;48550;40.588;49.684;2023-03-23T09:20:29;101722.13;;;13.95;63.79
60371;BME280;48550;40.588;49.684;2023-03-23T09:22:56;101710.03;;;13.86;68.25
60371;BME280;48550;40.588;49.684;2023-03-23T09:25:25;101711.38;;;14.07;63.16
60371;BME280;48550;40.588;49.684;2023-03-23T09:27:56;101713.31;;;14.18;60.59
60371;BME280;48550;40.588;49.684;2023-03-23T09:30:28;101707.22;;;14.23;57.04
60371;BME280;48550;40.588;49.684;2023-03-23T09:32:54;101698.41;;;14.16;61.62
60371;BME280;48550;40.588;49.684;2023-03-23T09:35:21;101699.06;;;14.11;51.16
60371;BME280;48550;40.588;49.684;2023-03-23T09:37:48;101701.16;;;14.09;56.05
60371;BME280;48550;40.588;49.684;2023-03-23T09:40:17;101685.03;;;13.79;65.62
60371;BME280;48550;40.588;49.684;2023-03-23T09:48:54;101687.47;;;14.22;59.72
60371;BME280;48550;40.588;49.684;2023-03-23T09:53:51;101679.88;;;14.43;56.77
60371;BME280;48550;40.588;49.684;2023-03-23T09:56:18;101672.00;;;14.41;56.72
60371;BME280;48550;40.588;49.684;2023-03-23T10:01:57;101667.09;;;14.61;55.89
60371;BME280;48550;40.588;49.684;2023-03-23T10:04:38;101674.00;;;14.81;52.57
60371;BME280;48550;40.588;49.684;2023-03-23T10:07:18;101659.44;;;14.93;51.70
60371;BME280;48550;40.588;49.684;2023-03-23T10:09:47;101669.25;;;15.11;53.53
60371;BME280;48550;40.588;49.684;2023-03-23T10:12:34;101667.94;;;15.14;50.71
60371;BME280;48550;40.588;49.684;2023-03-23T10:17:37;101656.84;;;15.27;50.57
60371;BME280;48550;40.588;49.684;2023-03-23T10:25:42;101645.41;;;15.08;56.05
60371;BME280;48550;40.588;49.684;2023-03-23T10:28:23;101638.47;;;15.01;56.94
60371;BME280;48550;40.588;49.684;2023-03-23T10:30:55;101635.16;;;15.10;56.42
60371;BME280;48550;40.588;49.684;2023-03-23T10:33:33;101631.06;;;15.08;57.79
60371;BME280;48550;40.588;49.684;2023-03-23T10:36:26;101626.38;;;15.03;58.77
60371;BME280;48550;40.588;49.684;2023-03-23T10:39:02;101627.03;;;15.10;60.03
60371;BME280;48550;40.588;49.684;2023-03-23T10:41:31;101611.34;;;14.96;64.02
60371;BME280;48550;40.588;49.684;2023-03-23T10:43:57;101621.53;;;15.05;65.29
60371;BME280;48550;40.588;49.684;2023-03-23T10:46:43;101605.03;;;15.18;64.86
60371;BME280;48550;40.588;49.684;2023-03-23T10:49:18;101596.72;;;15.37;65.33
60371;BME280;48550;40.588;49.684;2023-03-23T10:51:52;101598.03;;;15.51;66.09
60371;BME280;48550;40.588;49.684;2023-03-23T10:54:47;101585.56;;;15.62;69.34
60371;BME280;48550;40.588;49.684;2023-03-23T10:57:22;101590.81;;;15.85;66.67
60371;BME280;48550;40.588;49.684;2023-03-23T10:59:49;101585.63;;;16.17;63.85
60371;BME280;48550;40.588;49.684;2023-03-23T11:02:17;101569.31;;;16.50;59.16
60371;BME280;48550;40.588;49.684;2023-03-23T11:05:06;101569.09;;;16.96;54.28
60371;BME280;48550;40.588;49.684;2023-03-23T11:07:34;101562.06;;;17.54;43.97
60371;BME280;48550;40.588;49.684;2023-03-23T11:10:27;101561.06;;;18.34;37.87
60371;BME280;48550;40.588;49.684;2023-03-23T11:12:59;101550.75;;;18.98;35.41
60371;BME280;48550;40.588;49.684;2023-03-23T11:15:29;101553.88;;;19.58;32.98
60371;BME280;48550;40.588;49.684;2023-03-23T11:18:01;101545.66;;;19.93;32.73
60371;BME280;48550;40.588;49.684;2023-03-23T11:20:29;101545.09;;;20.17;32.47
60371;BME280;48550;40.588;49.684;2023-03-23T11:22:56;101541.78;;;20.35;32.55
60371;BME280;48550;40.588;49.684;2023-03-23T11:25:22;101542.03;;;20.44;31.67
60371;BME280;48550;40.588;49.684;2023-03-23T11:27:49;101550.47;;;20.52;31.30
60371;BME280;48550;40.588;49.684;2023-03-23T11:30:26;101547.72;;;20.57;29.70
60371;BME280;48550;40.588;49.684;2023-03-23T11:32:54;101554.22;;;20.67;30.07
60371;BME280;48550;40.588;49.684;2023-03-23T11:35:26;101553.69;;;20.65;30.60
60371;BME280;48550;40.588;49.684;2023-03-23T11:37:55;101552.34;;;20.62;29.13
60371;BME280;48550;40.588;49.684;2023-03-23T11:40:27;101543.91;;;20.58;29.33
60371;BME280;48550;40.588;49.684;2023-03-23T11:45:34;101554.25;;;20.56;30.08
60371;BME280;48550;40.588;49.684;2023-03-23T11:56:00;101533.81;;;20.54;30.46
60371;BME280;48550;40.588;49.684;2023-03-23T11:58:26;101540.09;;;20.54;30.94
60371;BME280;48550;40.588;49.684;2023-03-23T12:01:04;101546.63;;;20.58;31.03
60371;BME280;48550;40.588;49.684;2023-03-23T12:03:45;101544.44;;;20.60;31.50
60371;BME280;48550;40.588;49.684;2023-03-23T12:07:04;101545.50;;;20.65;31.08
60371;BME280;48550;40.588;49.684;2023-03-23T12:15:35;101539.53;;;20.57;30.85
60371;BME280;48550;40.588;49.684;2023-03-23T12:20:48;101537.94;;;20.46;30.97
60371;BME280;48550;40.588;49.684;2023-03-23T12:26:41;101533.88;;;20.34;30.94
60371;BME280;48550;40.588;49.684;2023-03-23T12:29:37;101531.69;;;20.30;30.58
60371;BME280;48550;40.588;49.684;2023-03-23T12:32:25;101529.28;;;20.24;31.19
60371;BME280;48550;40.588;49.684;2023-03-23T12:38:10;101547.56;;;20.13;30.28
60371;BME280;48550;40.588;49.684;2023-03-23T12:43:42;101535.28;;;20.06;30.72
60371;BME280;48550;40.588;49.684;2023-03-23T12:50:07;101531.22;;;20.08;30.44
60371;BME280;48550;40.588;49.684;2023-03-23T12:52:23;101530.41;;;20.08;30.46
60371;BME280;48550;40.588;49.684;2023-03-23T12:54:54;101524.97;;;20.08;30.42
60371;BME280;48550;40.588;49.684;2023-03-23T13:06:51;101523.06;;;19.83;30.63
60371;BME280;48550;40.588;49.684;2023-03-23T13:08:54;101526.34;;;19.75;30.24
60371;BME280;48550;40.588;49.684;2023-03-23T13:11:41;101529.63;;;19.72;29.85
60371;BME280;48550;40.588;49.684;2023-03-23T13:19:37;101521.16;;;19.38;31.16
60371;BME280;48550;40.588;49.684;2023-03-23T13:25:02;101521.69;;;19.24;30.58
60371;BME280;48550;40.588;49.684;2023-03-23T13:27:29;101529.56;;;19.21;30.40
60371;BME280;48550;40.588;49.684;2023-03-23T13:29:56;101515.69;;;19.12;30.97
60371;BME280;48550;40.588;49.684;2023-03-23T13:32:43;101514.31;;;19.04;31.27
60371;BME280;48550;40.588;49.684;2023-03-23T13:35:17;101515.66;;;18.97;31.12
60371;BME280;48550;40.588;49.684;2023-03-23T13:37:51;101512.94;;;18.92;31.19
60371;BME280;48550;40.588;49.684;2023-03-23T13:40:27;101517.53;;;18.81;31.47
60371;BME280;48550;40.588;49.684;2023-03-23T13:42:56;101524.56;;;18.72;31.59
60371;BME280;48550;40.588;49.684;2023-03-23T13:45:23;101519.66;;;18.64;31.97
60371;BME280;48550;40.588;49.684;2023-03-23T13:48:23;101520.75;;;18.63;32.21
60371;BME280;48550;40.588;49.684;2023-03-23T13:50:57;101518.78;;;18.58;31.46
60371;BME280;48550;40.588;49.684;2023-03-23T13:53:51;101523.06;;;18.49;31.90
60371;BME280;48550;40.588;49.684;2023-03-23T13:56:32;101514.09;;;18.43;32.83
60371;BME280;48550;40.588;49.684;2023-03-23T14:01:40;101523.19;;;18.17;32.66
60371;BME280;48550;40.588;49.684;2023-03-23T14:04:14;101526.16;;;18.10;32.46
60371;BME280;48550;40.588;49.684;2023-03-23T14:06:41;101528.47;;;17.92;33.04
60371;BME280;48550;40.588;49.684;2023-03-23T14:09:42;101536.78;;;17.80;32.46
60371;BME280;48550;40.588;49.684;2023-03-23T14:12:36;101526.94;;;17.69;32.37
60371;BME280;48550;40.588;49.684;2023-03-23T14:15:03;101538.22;;;17.56;31.45
60371;BME280;48550;40.588;49.684;2023-03-23T14:17:40;101547.50;;;17.33;30.86
60371;BME280;48550;40.588;49.684;2023-03-23T14:20:31;101546.81;;;17.15;30.56
60371;BME280;48550;40.588;49.684;2023-03-23T14:22:59;101548.16;;;16.91;30.12